sensor_id;sensor_type;location;lat;lon;timestamp;temperature;humidity
8008;DHT22;4049;49.468;11.200;2022-07-06T00:02:20;16.80;74.40
8008;DHT22;4049;49.468;11.200;2022-07-06T00:04:47;16.80;78.00
8008;DHT22;4049;49.468;11.200;2022-07-06T00:07:16;16.80;77.80
8008;DHT22;4049;49.468;11.200;2022-07-06T00:09:43;16.90;79.40
8008;DHT22;4049;49.468;11.200;2022-07-06T00:12:10;16.80;81.60
8008;DHT22;4049;49.468;11.200;2022-07-06T00:14:37;16.80;81.30
8008;DHT22;4049;49.468;11.200;2022-07-06T00:17:04;16.80;86.80
8008;DHT22;4049;49.468;11.200;2022-07-06T00:19:31;16.80;85.90
8008;DHT22;4049;49.468;11.200;2022-07-06T00:21:58;16.60;87.50
8008;DHT22;4049;49.468;11.200;2022-07-06T00:24:26;16.60;90.40
8008;DHT22;4049;49.468;11.200;2022-07-06T00:26:53;16.60;91.10
8008;DHT22;4049;49.468;11.200;2022-07-06T00:29:20;16.50;91.70
8008;DHT22;4049;49.468;11.200;2022-07-06T00:31:47;16.50;92.20
8008;DHT22;4049;49.468;11.200;2022-07-06T00:34:14;16.50;92.00
8008;DHT22;4049;49.468;11.200;2022-07-06T00:36:41;16.50;93.00
8008;DHT22;4049;49.468;11.200;2022-07-06T00:39:08;16.40;95.00
8008;DHT22;4049;49.468;11.200;2022-07-06T00:41:36;16.30;96.00
8008;DHT22;4049;49.468;11.200;2022-07-06T00:44:07;16.30;96.60
8008;DHT22;4049;49.468;11.200;2022-07-06T00:46:35;16.20;98.70
8008;DHT22;4049;49.468;11.200;2022-07-06T00:49:02;16.20;98.80
8008;DHT22;4049;49.468;11.200;2022-07-06T00:51:30;16.20;99.80
8008;DHT22;4049;49.468;11.200;2022-07-06T00:53:59;16.20;99.40
8008;DHT22;4049;49.468;11.200;2022-07-06T00:56:30;16.20;99.50
8008;DHT22;4049;49.468;11.200;2022-07-06T00:59:00;16.10;99.90
8008;DHT22;4049;49.468;11.200;2022-07-06T01:01:27;16.10;99.90
8008;DHT22;4049;49.468;11.200;2022-07-06T01:03:54;16.00;99.90
8008;DHT22;4049;49.468;11.200;2022-07-06T01:06:21;16.00;99.90
8008;DHT22;4049;49.468;11.200;2022-07-06T01:08:48;16.00;99.90
8008;DHT22;4049;49.468;11.200;2022-07-06T01:11:16;16.00;99.90
8008;DHT22;4049;49.468;11.200;2022-07-06T01:13:45;15.80;99.90
8008;DHT22;4049;49.468;11.200;2022-07-06T01:16:14;15.80;99.90
8008;DHT22;4049;49.468;11.200;2022-07-06T01:18:41;15.80;99.90
8008;DHT22;4049;49.468;11.200;2022-07-06T01:21:11;15.80;99.90
8008;DHT22;4049;49.468;11.200;2022-07-06T01:23:42;15.80;99.90
8008;DHT22;4049;49.468;11.200;2022-07-06T01:26:11;15.70;99.90
8008;DHT22;4049;49.468;11.200;2022-07-06T01:28:38;15.60;99.90
8008;DHT22;4049;49.468;11.200;2022-07-06T01:31:05;15.60;99.90
8008;DHT22;4049;49.468;11.200;2022-07-06T01:33:32;15.60;99.90
8008;DHT22;4049;49.468;11.200;2022-07-06T01:35:59;15.60;99.90
8008;DHT22;4049;49.468;11.200;2022-07-06T01:38:28;15.50;99.90
8008;DHT22;4049;49.468;11.200;2022-07-06T01:40:55;15.60;99.90
8008;DHT22;4049;49.468;11.200;2022-07-06T01:43:21;15.60;99.90
8008;DHT22;4049;49.468;11.200;2022-07-06T01:45:48;15.50;99.90
8008;DHT22;4049;49.468;11.200;2022-07-06T01:48:15;15.50;99.90
8008;DHT22;4049;49.468;11.200;2022-07-06T01:50:42;15.50;99.90
8008;DHT22;4049;49.468;11.200;2022-07-06T01:53:09;15.40;99.90
8008;DHT22;4049;49.468;11.200;2022-07-06T01:55:38;15.30;99.90
8008;DHT22;4049;49.468;11.200;2022-07-06T01:58:04;15.30;99.90
8008;DHT22;4049;49.468;11.200;2022-07-06T02:00:31;15.30;99.90
8008;DHT22;4049;49.468;11.200;2022-07-06T02:02:58;15.30;99.90
8008;DHT22;4049;49.468;11.200;2022-07-06T02:05:25;15.10;99.90
8008;DHT22;4049;49.468;11.200;2022-07-06T02:07:52;15.10;99.90
8008;DHT22;4049;49.468;11.200;2022-07-06T02:10:19;15.10;99.90
8008;DHT22;4049;49.468;11.200;2022-07-06T02:12:48;15.10;99.90
8008;DHT22;4049;49.468;11.200;2022-07-06T02:15:15;15.10;99.90
8008;DHT22;4049;49.468;11.200;2022-07-06T02:17:42;15.10;99.90
8008;DHT22;4049;49.468;11.200;2022-07-06T02:20:10;15.10;99.90
8008;DHT22;4049;49.468;11.200;2022-07-06T02:22:37;15.10;99.90
8008;DHT22;4049;49.468;11.200;2022-07-06T02:25:05;15.10;99.90
8008;DHT22;4049;49.468;11.200;2022-07-06T02:27:32;14.90;99.90
8008;DHT22;4049;49.468;11.200;2022-07-06T02:30:00;14.90;99.90
8008;DHT22;4049;49.468;11.200;2022-07-06T02:32:27;14.90;99.90
8008;DHT22;4049;49.468;11.200;2022-07-06T02:34:54;14.80;99.90
8008;DHT22;4049;49.468;11.200;2022-07-06T02:37:21;14.70;99.90
8008;DHT22;4049;49.468;11.200;2022-07-06T02:39:48;14.70;99.90
8008;DHT22;4049;49.468;11.200;2022-07-06T02:42:15;14.70;99.90
8008;DHT22;4049;49.468;11.200;2022-07-06T02:44:42;14.70;99.90
8008;DHT22;4049;49.468;11.200;2022-07-06T02:47:10;14.70;99.90
8008;DHT22;4049;49.468;11.200;2022-07-06T02:49:37;14.60;99.90
8008;DHT22;4049;49.468;11.200;2022-07-06T02:52:05;14.60;99.90
8008;DHT22;4049;49.468;11.200;2022-07-06T02:54:32;14.60;99.90
8008;DHT22;4049;49.468;11.200;2022-07-06T02:56:59;14.60;99.90
8008;DHT22;4049;49.468;11.200;2022-07-06T02:59:25;14.60;99.90
8008;DHT22;4049;49.468;11.200;2022-07-06T03:01:52;14.60;99.90
8008;DHT22;4049;49.468;11.200;2022-07-06T03:04:21;14.50;99.90
8008;DHT22;4049;49.468;11.200;2022-07-06T03:06:48;14.60;99.90
8008;DHT22;4049;49.468;11.200;2022-07-06T03:09:15;14.50;99.90
8008;DHT22;4049;49.468;11.200;2022-07-06T03:11:42;14.50;99.90
8008;DHT22;4049;49.468;11.200;2022-07-06T03:14:09;14.50;99.90
8008;DHT22;4049;49.468;11.200;2022-07-06T03:16:36;14.60;99.90
8008;DHT22;4049;49.468;11.200;2022-07-06T03:19:03;14.50;99.90
8008;DHT22;4049;49.468;11.200;2022-07-06T03:21:31;14.50;99.90
8008;DHT22;4049;49.468;11.200;2022-07-06T03:23:58;14.50;99.90
8008;DHT22;4049;49.468;11.200;2022-07-06T03:26:25;14.60;99.90
8008;DHT22;4049;49.468;11.200;2022-07-06T03:28:52;14.60;99.90
8008;DHT22;4049;49.468;11.200;2022-07-06T03:31:19;14.60;99.90
8008;DHT22;4049;49.468;11.200;2022-07-06T03:33:46;14.50;99.90
8008;DHT22;4049;49.468;11.200;2022-07-06T03:36:13;14.50;99.90
8008;DHT22;4049;49.468;11.200;2022-07-06T03:38:41;14.40;99.90
8008;DHT22;4049;49.468;11.200;2022-07-06T03:41:08;14.30;99.90
8008;DHT22;4049;49.468;11.200;2022-07-06T03:43:35;14.40;99.90
8008;DHT22;4049;49.468;11.200;2022-07-06T03:46:03;14.40;99.90
8008;DHT22;4049;49.468;11.200;2022-07-06T03:48:30;14.30;99.90
8008;DHT22;4049;49.468;11.200;2022-07-06T03:50:57;14.20;99.90
8008;DHT22;4049;49.468;11.200;2022-07-06T03:53:24;14.20;99.90
8008;DHT22;4049;49.468;11.200;2022-07-06T03:55:53;14.20;99.90
8008;DHT22;4049;49.468;11.200;2022-07-06T03:58:37;14.30;99.90
8008;DHT22;4049;49.468;11.200;2022-07-06T04:01:04;14.30;99.90
8008;DHT22;4049;49.468;11.200;2022-07-06T04:03:31;14.30;99.90
8008;DHT22;4049;49.468;11.200;2022-07-06T04:05:58;14.30;99.90
8008;DHT22;4049;49.468;11.200;2022-07-06T04:08:25;14.40;99.90
8008;DHT22;4049;49.468;11.200;2022-07-06T04:10:53;14.40;99.90
8008;DHT22;4049;49.468;11.200;2022-07-06T04:13:21;14.40;99.90
8008;DHT22;4049;49.468;11.200;2022-07-06T04:15:48;14.30;99.90
8008;DHT22;4049;49.468;11.200;2022-07-06T04:18:15;14.30;99.90
8008;DHT22;4049;49.468;11.200;2022-07-06T04:20:42;14.40;99.90
8008;DHT22;4049;49.468;11.200;2022-07-06T04:23:08;14.40;99.90
8008;DHT22;4049;49.468;11.200;2022-07-06T04:25:35;14.30;99.90
8008;DHT22;4049;49.468;11.200;2022-07-06T04:28:04;14.30;99.90
8008;DHT22;4049;49.468;11.200;2022-07-06T04:30:31;14.30;99.90
8008;DHT22;4049;49.468;11.200;2022-07-06T04:32:58;14.30;99.90
8008;DHT22;4049;49.468;11.200;2022-07-06T04:35:25;14.30;99.90
8008;DHT22;4049;49.468;11.200;2022-07-06T04:37:52;14.40;99.90
8008;DHT22;4049;49.468;11.200;2022-07-06T04:40:19;14.40;99.90
8008;DHT22;4049;49.468;11.200;2022-07-06T04:42:47;14.40;99.90
8008;DHT22;4049;49.468;11.200;2022-07-06T04:45:15;14.50;99.90
8008;DHT22;4049;49.468;11.200;2022-07-06T04:47:42;14.50;99.90
8008;DHT22;4049;49.468;11.200;2022-07-06T04:50:10;14.60;99.90
8008;DHT22;4049;49.468;11.200;2022-07-06T04:52:37;14.60;99.90
8008;DHT22;4049;49.468;11.200;2022-07-06T04:55:05;14.60;99.90
8008;DHT22;4049;49.468;11.200;2022-07-06T04:57:34;14.70;99.90
8008;DHT22;4049;49.468;11.200;2022-07-06T05:00:02;14.80;99.90
8008;DHT22;4049;49.468;11.200;2022-07-06T05:02:31;14.80;99.90
8008;DHT22;4049;49.468;11.200;2022-07-06T05:04:58;14.90;99.90
8008;DHT22;4049;49.468;11.200;2022-07-06T05:07:25;15.00;99.90
8008;DHT22;4049;49.468;11.200;2022-07-06T05:09:55;15.00;99.90
8008;DHT22;4049;49.468;11.200;2022-07-06T05:12:22;15.10;99.90
8008;DHT22;4049;49.468;11.200;2022-07-06T05:14:49;15.20;99.90
8008;DHT22;4049;49.468;11.200;2022-07-06T05:17:16;15.30;99.90
8008;DHT22;4049;49.468;11.200;2022-07-06T05:19:45;15.30;99.90
8008;DHT22;4049;49.468;11.200;2022-07-06T05:22:12;15.40;99.90
8008;DHT22;4049;49.468;11.200;2022-07-06T05:24:39;15.50;99.90
8008;DHT22;4049;49.468;11.200;2022-07-06T05:27:05;15.60;99.90
8008;DHT22;4049;49.468;11.200;2022-07-06T05:29:32;15.60;99.90
8008;DHT22;4049;49.468;11.200;2022-07-06T05:32:00;15.70;99.90
8008;DHT22;4049;49.468;11.200;2022-07-06T05:34:27;15.80;99.90
8008;DHT22;4049;49.468;11.200;2022-07-06T05:36:56;15.90;99.90
8008;DHT22;4049;49.468;11.200;2022-07-06T05:39:23;16.00;99.90
8008;DHT22;4049;49.468;11.200;2022-07-06T05:41:49;16.00;99.90
8008;DHT22;4049;49.468;11.200;2022-07-06T05:44:16;16.10;99.90
8008;DHT22;4049;49.468;11.200;2022-07-06T05:46:43;16.10;99.90
8008;DHT22;4049;49.468;11.200;2022-07-06T05:49:10;16.20;99.90
8008;DHT22;4049;49.468;11.200;2022-07-06T05:51:56;16.20;99.90
8008;DHT22;4049;49.468;11.200;2022-07-06T05:54:23;16.30;99.90
8008;DHT22;4049;49.468;11.200;2022-07-06T05:56:50;16.40;99.90
8008;DHT22;4049;49.468;11.200;2022-07-06T05:59:17;16.50;99.90
8008;DHT22;4049;49.468;11.200;2022-07-06T06:01:44;16.60;99.90
8008;DHT22;4049;49.468;11.200;2022-07-06T06:04:11;16.70;99.90
8008;DHT22;4049;49.468;11.200;2022-07-06T06:06:38;16.80;99.90
8008;DHT22;4049;49.468;11.200;2022-07-06T06:09:06;16.90;99.90
8008;DHT22;4049;49.468;11.200;2022-07-06T06:11:33;17.00;99.90
8008;DHT22;4049;49.468;11.200;2022-07-06T06:14:00;17.10;99.90
8008;DHT22;4049;49.468;11.200;2022-07-06T06:16:27;17.10;99.90
8008;DHT22;4049;49.468;11.200;2022-07-06T06:18:54;17.20;99.90
8008;DHT22;4049;49.468;11.200;2022-07-06T06:21:21;17.30;99.90
8008;DHT22;4049;49.468;11.200;2022-07-06T06:23:48;17.30;99.90
8008;DHT22;4049;49.468;11.200;2022-07-06T06:26:18;17.40;99.90
8008;DHT22;4049;49.468;11.200;2022-07-06T06:28:45;17.60;99.90
8008;DHT22;4049;49.468;11.200;2022-07-06T06:31:12;17.70;99.90
8008;DHT22;4049;49.468;11.200;2022-07-06T06:33:39;17.70;99.90
8008;DHT22;4049;49.468;11.200;2022-07-06T06:36:06;17.80;99.90
8008;DHT22;4049;49.468;11.200;2022-07-06T06:38:33;18.00;99.90
8008;DHT22;4049;49.468;11.200;2022-07-06T06:41:00;18.00;99.90
8008;DHT22;4049;49.468;11.200;2022-07-06T06:43:29;18.10;99.90
8008;DHT22;4049;49.468;11.200;2022-07-06T06:45:56;18.20;99.90
8008;DHT22;4049;49.468;11.200;2022-07-06T06:48:23;18.30;99.90
8008;DHT22;4049;49.468;11.200;2022-07-06T06:50:54;18.40;99.90
8008;DHT22;4049;49.468;11.200;2022-07-06T06:53:21;18.50;99.90
8008;DHT22;4049;49.468;11.200;2022-07-06T06:55:48;18.60;99.90
8008;DHT22;4049;49.468;11.200;2022-07-06T06:58:15;18.70;99.90
8008;DHT22;4049;49.468;11.200;2022-07-06T07:00:43;18.90;99.90
8008;DHT22;4049;49.468;11.200;2022-07-06T07:03:10;19.00;99.90
8008;DHT22;4049;49.468;11.200;2022-07-06T07:05:37;19.10;99.90
8008;DHT22;4049;49.468;11.200;2022-07-06T07:08:04;19.10;99.90
8008;DHT22;4049;49.468;11.200;2022-07-06T07:10:32;19.20;99.90
8008;DHT22;4049;49.468;11.200;2022-07-06T07:12:59;19.30;99.90
8008;DHT22;4049;49.468;11.200;2022-07-06T07:15:26;19.40;99.90
8008;DHT22;4049;49.468;11.200;2022-07-06T07:17:54;19.50;99.90
8008;DHT22;4049;49.468;11.200;2022-07-06T07:20:21;19.50;99.90
8008;DHT22;4049;49.468;11.200;2022-07-06T07:22:48;19.60;98.50
8008;DHT22;4049;49.468;11.200;2022-07-06T07:25:16;19.60;99.40
8008;DHT22;4049;49.468;11.200;2022-07-06T07:27:43;19.70;98.90
8008;DHT22;4049;49.468;11.200;2022-07-06T07:30:11;19.80;98.60
8008;DHT22;4049;49.468;11.200;2022-07-06T07:32:38;19.90;97.90
8008;DHT22;4049;49.468;11.200;2022-07-06T07:35:08;20.00;96.90
8008;DHT22;4049;49.468;11.200;2022-07-06T07:37:35;20.10;95.10
8008;DHT22;4049;49.468;11.200;2022-07-06T07:40:02;20.10;94.60
8008;DHT22;4049;49.468;11.200;2022-07-06T07:42:31;20.20;94.60
8008;DHT22;4049;49.468;11.200;2022-07-06T07:44:58;20.20;93.70
8008;DHT22;4049;49.468;11.200;2022-07-06T07:47:25;20.30;93.20
8008;DHT22;4049;49.468;11.200;2022-07-06T07:49:52;20.40;92.70
8008;DHT22;4049;49.468;11.200;2022-07-06T07:52:21;20.40;90.10
8008;DHT22;4049;49.468;11.200;2022-07-06T07:54:48;20.50;90.10
8008;DHT22;4049;49.468;11.200;2022-07-06T07:57:15;20.50;88.10
8008;DHT22;4049;49.468;11.200;2022-07-06T07:59:42;20.40;86.60
8008;DHT22;4049;49.468;11.200;2022-07-06T08:02:09;20.40;87.20
8008;DHT22;4049;49.468;11.200;2022-07-06T08:04:36;20.50;85.80
8008;DHT22;4049;49.468;11.200;2022-07-06T08:07:03;20.70;87.40
8008;DHT22;4049;49.468;11.200;2022-07-06T08:09:31;20.80;86.20
8008;DHT22;4049;49.468;11.200;2022-07-06T08:11:58;20.90;85.00
8008;DHT22;4049;49.468;11.200;2022-07-06T08:14:25;21.00;82.00
8008;DHT22;4049;49.468;11.200;2022-07-06T08:16:53;21.10;86.20
8008;DHT22;4049;49.468;11.200;2022-07-06T08:19:20;21.30;81.60
8008;DHT22;4049;49.468;11.200;2022-07-06T08:21:47;21.40;75.20
8008;DHT22;4049;49.468;11.200;2022-07-06T08:24:13;21.40;74.30
8008;DHT22;4049;49.468;11.200;2022-07-06T08:26:42;21.50;70.20
8008;DHT22;4049;49.468;11.200;2022-07-06T08:29:09;21.60;71.20
8008;DHT22;4049;49.468;11.200;2022-07-06T08:31:36;21.70;68.50
8008;DHT22;4049;49.468;11.200;2022-07-06T08:34:03;21.80;70.30
8008;DHT22;4049;49.468;11.200;2022-07-06T08:36:30;21.90;67.60
8008;DHT22;4049;49.468;11.200;2022-07-06T08:38:57;21.80;63.30
8008;DHT22;4049;49.468;11.200;2022-07-06T08:41:26;21.90;62.30
8008;DHT22;4049;49.468;11.200;2022-07-06T08:43:56;22.00;62.70
8008;DHT22;4049;49.468;11.200;2022-07-06T08:46:24;22.00;58.60
8008;DHT22;4049;49.468;11.200;2022-07-06T08:48:51;22.10;59.00
8008;DHT22;4049;49.468;11.200;2022-07-06T08:51:20;22.10;60.30
8008;DHT22;4049;49.468;11.200;2022-07-06T08:53:49;22.20;58.40
8008;DHT22;4049;49.468;11.200;2022-07-06T08:56:17;22.20;57.10
8008;DHT22;4049;49.468;11.200;2022-07-06T08:58:44;22.40;58.50
8008;DHT22;4049;49.468;11.200;2022-07-06T09:01:13;22.50;56.50
8008;DHT22;4049;49.468;11.200;2022-07-06T09:03:41;22.50;56.10
8008;DHT22;4049;49.468;11.200;2022-07-06T09:06:08;22.50;56.40
8008;DHT22;4049;49.468;11.200;2022-07-06T09:08:36;22.70;56.40
8008;DHT22;4049;49.468;11.200;2022-07-06T09:11:03;22.70;55.90
8008;DHT22;4049;49.468;11.200;2022-07-06T09:13:30;22.90;56.80
8008;DHT22;4049;49.468;11.200;2022-07-06T09:16:09;22.90;55.00
8008;DHT22;4049;49.468;11.200;2022-07-06T09:18:38;23.00;55.10
8008;DHT22;4049;49.468;11.200;2022-07-06T09:21:08;23.00;55.10
8008;DHT22;4049;49.468;11.200;2022-07-06T09:23:36;23.00;55.00
8008;DHT22;4049;49.468;11.200;2022-07-06T09:26:04;23.00;53.00
8008;DHT22;4049;49.468;11.200;2022-07-06T09:28:42;22.90;52.90
8008;DHT22;4049;49.468;11.200;2022-07-06T09:31:09;23.00;54.10
8008;DHT22;4049;49.468;11.200;2022-07-06T09:33:37;23.10;55.10
8008;DHT22;4049;49.468;11.200;2022-07-06T09:36:05;23.00;53.50
8008;DHT22;4049;49.468;11.200;2022-07-06T09:38:32;23.00;54.60
8008;DHT22;4049;49.468;11.200;2022-07-06T09:40:59;22.90;53.80
8008;DHT22;4049;49.468;11.200;2022-07-06T09:43:28;23.00;54.80
8008;DHT22;4049;49.468;11.200;2022-07-06T09:45:57;23.00;54.60
8008;DHT22;4049;49.468;11.200;2022-07-06T09:48:25;23.10;55.30
8008;DHT22;4049;49.468;11.200;2022-07-06T09:50:55;23.30;53.90
8008;DHT22;4049;49.468;11.200;2022-07-06T09:53:24;23.20;51.20
8008;DHT22;4049;49.468;11.200;2022-07-06T09:55:54;23.20;51.90
8008;DHT22;4049;49.468;11.200;2022-07-06T09:58:22;23.30;50.90
8008;DHT22;4049;49.468;11.200;2022-07-06T10:00:49;23.40;51.80
8008;DHT22;4049;49.468;11.200;2022-07-06T10:03:17;23.50;51.80
8008;DHT22;4049;49.468;11.200;2022-07-06T10:05:46;23.70;51.90
8008;DHT22;4049;49.468;11.200;2022-07-06T10:08:17;23.90;51.10
8008;DHT22;4049;49.468;11.200;2022-07-06T10:10:44;24.00;50.60
8008;DHT22;4049;49.468;11.200;2022-07-06T10:13:12;24.10;48.70
8008;DHT22;4049;49.468;11.200;2022-07-06T10:15:41;24.10;49.20
8008;DHT22;4049;49.468;11.200;2022-07-06T10:18:09;24.10;48.70
8008;DHT22;4049;49.468;11.200;2022-07-06T10:20:37;24.20;49.70
8008;DHT22;4049;49.468;11.200;2022-07-06T10:23:06;24.30;48.60
8008;DHT22;4049;49.468;11.200;2022-07-06T10:25:35;24.30;48.10
8008;DHT22;4049;49.468;11.200;2022-07-06T10:28:02;24.50;47.70
8008;DHT22;4049;49.468;11.200;2022-07-06T10:30:37;24.60;49.20
8008;DHT22;4049;49.468;11.200;2022-07-06T10:33:04;24.80;48.50
8008;DHT22;4049;49.468;11.200;2022-07-06T10:35:32;24.90;47.90
8008;DHT22;4049;49.468;11.200;2022-07-06T10:38:06;25.10;48.00
8008;DHT22;4049;49.468;11.200;2022-07-06T10:40:35;25.20;47.80
8008;DHT22;4049;49.468;11.200;2022-07-06T10:43:19;25.30;47.30
8008;DHT22;4049;49.468;11.200;2022-07-06T10:45:51;25.30;46.80
8008;DHT22;4049;49.468;11.200;2022-07-06T10:48:19;25.30;46.40
8008;DHT22;4049;49.468;11.200;2022-07-06T10:50:49;25.20;46.40
8008;DHT22;4049;49.468;11.200;2022-07-06T10:53:20;25.20;46.60
8008;DHT22;4049;49.468;11.200;2022-07-06T10:55:50;25.30;46.20
8008;DHT22;4049;49.468;11.200;2022-07-06T10:58:38;25.20;45.60
8008;DHT22;4049;49.468;11.200;2022-07-06T11:01:06;25.40;46.00
8008;DHT22;4049;49.468;11.200;2022-07-06T11:03:38;25.50;44.70
8008;DHT22;4049;49.468;11.200;2022-07-06T11:06:08;25.60;46.30
8008;DHT22;4049;49.468;11.200;2022-07-06T11:08:56;25.80;46.30
8008;DHT22;4049;49.468;11.200;2022-07-06T11:11:37;26.00;45.40
8008;DHT22;4049;49.468;11.200;2022-07-06T11:14:07;26.20;46.30
8008;DHT22;4049;49.468;11.200;2022-07-06T11:16:37;26.50;45.70
8008;DHT22;4049;49.468;11.200;2022-07-06T11:19:07;26.70;44.50
8008;DHT22;4049;49.468;11.200;2022-07-06T11:21:44;26.70;43.80
8008;DHT22;4049;49.468;11.200;2022-07-06T11:24:14;26.60;44.10
8008;DHT22;4049;49.468;11.200;2022-07-06T11:26:44;26.70;43.60
8008;DHT22;4049;49.468;11.200;2022-07-06T11:29:12;26.90;43.10
8008;DHT22;4049;49.468;11.200;2022-07-06T11:31:40;27.10;42.90
8008;DHT22;4049;49.468;11.200;2022-07-06T11:34:09;27.40;42.50
8008;DHT22;4049;49.468;11.200;2022-07-06T11:36:36;27.60;41.70
8008;DHT22;4049;49.468;11.200;2022-07-06T11:39:04;27.80;41.10
8008;DHT22;4049;49.468;11.200;2022-07-06T11:41:32;27.70;41.00
8008;DHT22;4049;49.468;11.200;2022-07-06T11:44:00;27.50;41.60
8008;DHT22;4049;49.468;11.200;2022-07-06T11:46:29;27.30;41.60
8008;DHT22;4049;49.468;11.200;2022-07-06T11:48:58;27.20;41.50
8008;DHT22;4049;49.468;11.200;2022-07-06T11:51:27;27.50;42.80
8008;DHT22;4049;49.468;11.200;2022-07-06T11:53:55;27.90;42.10
8008;DHT22;4049;49.468;11.200;2022-07-06T11:56:23;28.20;41.40
8008;DHT22;4049;49.468;11.200;2022-07-06T11:58:53;28.50;39.00
8008;DHT22;4049;49.468;11.200;2022-07-06T12:01:23;28.90;38.00
8008;DHT22;4049;49.468;11.200;2022-07-06T12:03:51;28.60;37.80
8008;DHT22;4049;49.468;11.200;2022-07-06T12:06:19;28.30;37.30
8008;DHT22;4049;49.468;11.200;2022-07-06T12:08:48;27.90;38.30
8008;DHT22;4049;49.468;11.200;2022-07-06T12:11:23;27.90;38.90
8008;DHT22;4049;49.468;11.200;2022-07-06T12:13:52;28.10;37.60
8008;DHT22;4049;49.468;11.200;2022-07-06T12:16:19;27.70;37.10
8008;DHT22;4049;49.468;11.200;2022-07-06T12:18:50;27.60;38.30
8008;DHT22;4049;49.468;11.200;2022-07-06T12:21:19;27.40;39.10
8008;DHT22;4049;49.468;11.200;2022-07-06T12:23:48;27.70;38.00
8008;DHT22;4049;49.468;11.200;2022-07-06T12:26:17;27.60;38.00
8008;DHT22;4049;49.468;11.200;2022-07-06T12:28:44;28.00;39.40
8008;DHT22;4049;49.468;11.200;2022-07-06T12:31:31;28.30;37.40
8008;DHT22;4049;49.468;11.200;2022-07-06T12:33:59;28.70;38.00
8008;DHT22;4049;49.468;11.200;2022-07-06T12:36:26;29.00;37.70
8008;DHT22;4049;49.468;11.200;2022-07-06T12:38:53;29.20;37.10
8008;DHT22;4049;49.468;11.200;2022-07-06T12:41:28;29.30;37.10
8008;DHT22;4049;49.468;11.200;2022-07-06T12:44:04;29.10;36.30
8008;DHT22;4049;49.468;11.200;2022-07-06T12:46:33;29.10;35.90
8008;DHT22;4049;49.468;11.200;2022-07-06T12:49:10;29.00;36.70
8008;DHT22;4049;49.468;11.200;2022-07-06T12:51:58;29.20;36.10
8008;DHT22;4049;49.468;11.200;2022-07-06T12:54:28;29.30;36.40
8008;DHT22;4049;49.468;11.200;2022-07-06T12:57:00;29.40;35.00
8008;DHT22;4049;49.468;11.200;2022-07-06T12:59:28;29.50;34.60
8008;DHT22;4049;49.468;11.200;2022-07-06T13:01:56;29.70;34.90
8008;DHT22;4049;49.468;11.200;2022-07-06T13:04:26;29.50;32.80
8008;DHT22;4049;49.468;11.200;2022-07-06T13:06:54;29.20;34.10
8008;DHT22;4049;49.468;11.200;2022-07-06T13:09:21;28.90;34.30
8008;DHT22;4049;49.468;11.200;2022-07-06T13:11:49;28.90;34.30
8008;DHT22;4049;49.468;11.200;2022-07-06T13:14:18;28.80;34.40
8008;DHT22;4049;49.468;11.200;2022-07-06T13:16:46;28.80;34.30
8008;DHT22;4049;49.468;11.200;2022-07-06T13:19:14;28.80;33.30
8008;DHT22;4049;49.468;11.200;2022-07-06T13:21:42;28.90;34.80
8008;DHT22;4049;49.468;11.200;2022-07-06T13:24:10;29.00;35.80
8008;DHT22;4049;49.468;11.200;2022-07-06T13:26:37;29.00;34.40
8008;DHT22;4049;49.468;11.200;2022-07-06T13:29:04;28.60;34.70
8008;DHT22;4049;49.468;11.200;2022-07-06T13:31:31;28.60;36.10
8008;DHT22;4049;49.468;11.200;2022-07-06T13:33:58;28.50;35.20
8008;DHT22;4049;49.468;11.200;2022-07-06T13:36:25;28.30;35.60
8008;DHT22;4049;49.468;11.200;2022-07-06T13:38:53;28.40;35.60
8008;DHT22;4049;49.468;11.200;2022-07-06T13:41:20;28.50;35.70
8008;DHT22;4049;49.468;11.200;2022-07-06T13:43:47;28.60;34.20
8008;DHT22;4049;49.468;11.200;2022-07-06T13:46:15;28.60;34.10
8008;DHT22;4049;49.468;11.200;2022-07-06T13:48:43;28.50;34.10
8008;DHT22;4049;49.468;11.200;2022-07-06T13:51:10;28.40;32.70
8008;DHT22;4049;49.468;11.200;2022-07-06T13:53:38;28.20;34.50
8008;DHT22;4049;49.468;11.200;2022-07-06T13:56:06;28.30;34.80
8008;DHT22;4049;49.468;11.200;2022-07-06T13:58:34;28.10;33.40
8008;DHT22;4049;49.468;11.200;2022-07-06T14:01:02;28.20;34.70
8008;DHT22;4049;49.468;11.200;2022-07-06T14:03:29;28.20;35.60
8008;DHT22;4049;49.468;11.200;2022-07-06T14:05:57;28.30;35.00
8008;DHT22;4049;49.468;11.200;2022-07-06T14:08:24;28.40;34.90
8008;DHT22;4049;49.468;11.200;2022-07-06T14:10:52;28.40;34.80
8008;DHT22;4049;49.468;11.200;2022-07-06T14:13:21;28.50;35.10
8008;DHT22;4049;49.468;11.200;2022-07-06T14:15:48;28.70;35.00
8008;DHT22;4049;49.468;11.200;2022-07-06T14:18:16;28.80;34.60
8008;DHT22;4049;49.468;11.200;2022-07-06T14:20:44;28.90;35.20
8008;DHT22;4049;49.468;11.200;2022-07-06T14:23:11;28.90;34.90
8008;DHT22;4049;49.468;11.200;2022-07-06T14:25:38;29.00;34.90
8008;DHT22;4049;49.468;11.200;2022-07-06T14:28:05;29.00;35.10
8008;DHT22;4049;49.468;11.200;2022-07-06T14:30:34;29.10;34.50
8008;DHT22;4049;49.468;11.200;2022-07-06T14:33:03;28.60;33.70
8008;DHT22;4049;49.468;11.200;2022-07-06T14:35:33;28.30;33.80
8008;DHT22;4049;49.468;11.200;2022-07-06T14:38:01;28.40;34.60
8008;DHT22;4049;49.468;11.200;2022-07-06T14:40:28;28.40;33.90
8008;DHT22;4049;49.468;11.200;2022-07-06T14:42:55;28.40;34.70
8008;DHT22;4049;49.468;11.200;2022-07-06T14:45:23;28.50;34.80
8008;DHT22;4049;49.468;11.200;2022-07-06T14:47:51;28.60;35.00
8008;DHT22;4049;49.468;11.200;2022-07-06T14:50:18;28.60;33.70
8008;DHT22;4049;49.468;11.200;2022-07-06T14:52:46;28.60;33.90
8008;DHT22;4049;49.468;11.200;2022-07-06T14:55:13;28.70;33.30
8008;DHT22;4049;49.468;11.200;2022-07-06T14:57:40;28.50;33.30
8008;DHT22;4049;49.468;11.200;2022-07-06T15:00:08;28.30;33.60
8008;DHT22;4049;49.468;11.200;2022-07-06T15:02:35;28.30;33.00
8008;DHT22;4049;49.468;11.200;2022-07-06T15:05:05;28.30;33.80
8008;DHT22;4049;49.468;11.200;2022-07-06T15:07:32;28.20;33.50
8008;DHT22;4049;49.468;11.200;2022-07-06T15:09:59;28.10;33.30
8008;DHT22;4049;49.468;11.200;2022-07-06T15:12:26;28.00;33.80
8008;DHT22;4049;49.468;11.200;2022-07-06T15:14:53;28.10;34.40
8008;DHT22;4049;49.468;11.200;2022-07-06T15:17:20;27.90;33.80
8008;DHT22;4049;49.468;11.200;2022-07-06T15:19:47;27.70;33.50
8008;DHT22;4049;49.468;11.200;2022-07-06T15:22:15;27.70;35.00
8008;DHT22;4049;49.468;11.200;2022-07-06T15:24:42;27.50;33.20
8008;DHT22;4049;49.468;11.200;2022-07-06T15:27:09;27.60;34.40
8008;DHT22;4049;49.468;11.200;2022-07-06T15:29:36;27.80;34.00
8008;DHT22;4049;49.468;11.200;2022-07-06T15:32:03;27.80;33.70
8008;DHT22;4049;49.468;11.200;2022-07-06T15:34:31;27.80;34.40
8008;DHT22;4049;49.468;11.200;2022-07-06T15:36:57;27.80;33.30
8008;DHT22;4049;49.468;11.200;2022-07-06T15:39:26;27.80;33.90
8008;DHT22;4049;49.468;11.200;2022-07-06T15:41:53;27.80;33.50
8008;DHT22;4049;49.468;11.200;2022-07-06T15:44:20;27.80;33.50
8008;DHT22;4049;49.468;11.200;2022-07-06T15:46:47;27.70;33.10
8008;DHT22;4049;49.468;11.200;2022-07-06T15:49:15;27.70;33.40
8008;DHT22;4049;49.468;11.200;2022-07-06T15:51:43;27.50;32.60